Lake of the Woods, Illinois
Current Conditions -  °F | °C
As of 6:54 PM on Friday 31 Oct 2014 (Local Time) from KPIA Reporting Station
Broken Clouds Broken Clouds  
Wind Chill: 34°   Ceiling: 5000
Heat Index: 40°   Visibility: 10mi
Dew Point: 19°   Wind: 8mph
Humidity: 43%   Direction: 10°N
Pressure: 30.37"   Gusts: NA
Location:  40.8455°N, 89.6704°W
Report Text: KPIA 312354Z 01007KT 10SM BKN050 04/M07 A3037 RMK AO2 SLP289 T00441072 10078 20039 51025
Loading
Personal Weather Stations






























Interactive Weather Map
Tropical Storm Tracking
New forecast layout! Learn more

10-Day Weather Forecast

Advertisements
Track Severe Weather on mobile